sensor_id;sensor_type;location;lat;lon;timestamp;pressure;altitude;pressure_sealevel;temperature;humidity
4392;BME280;2210;51.938;8.488;2024-01-11T00:02:56;102109.72;;;-4.65;83.04
4392;BME280;2210;51.938;8.488;2024-01-11T00:06:56;102113.56;;;-4.69;83.12
4392;BME280;2210;51.938;8.488;2024-01-11T00:10:56;102109.06;;;-4.69;84.12
4392;BME280;2210;51.938;8.488;2024-01-11T00:14:57;102119.38;;;-4.76;84.38
4392;BME280;2210;51.938;8.488;2024-01-11T00:19:00;102109.56;;;-4.77;85.25
4392;BME280;2210;51.938;8.488;2024-01-11T00:23:00;102104.28;;;-4.78;85.44
4392;BME280;2210;51.938;8.488;2024-01-11T00:27:00;102099.22;;;-4.83;85.37
4392;BME280;2210;51.938;8.488;2024-01-11T00:31:00;102103.06;;;-4.87;85.21
4392;BME280;2210;51.938;8.488;2024-01-11T00:35:01;102096.59;;;-4.84;86.05
4392;BME280;2210;51.938;8.488;2024-01-11T00:39:01;102094.97;;;-4.87;86.36
4392;BME280;2210;51.938;8.488;2024-01-11T00:43:01;102091.13;;;-4.97;86.29
4392;BME280;2210;51.938;8.488;2024-01-11T00:47:01;102089.28;;;-4.97;87.29
4392;BME280;2210;51.938;8.488;2024-01-11T00:51:04;102086.13;;;-5.03;86.83
4392;BME280;2210;51.938;8.488;2024-01-11T00:55:05;102083.94;;;-5.11;86.71
4392;BME280;2210;51.938;8.488;2024-01-11T00:59:05;102073.09;;;-5.24;86.99
4392;BME280;2210;51.938;8.488;2024-01-11T01:03:05;102080.28;;;-5.25;87.82
4392;BME280;2210;51.938;8.488;2024-01-11T01:07:06;102081.63;;;-5.32;87.27
4392;BME280;2210;51.938;8.488;2024-01-11T01:11:07;102088.53;;;-5.42;88.03
4392;BME280;2210;51.938;8.488;2024-01-11T01:15:07;102096.22;;;-5.36;88.15
4392;BME280;2210;51.938;8.488;2024-01-11T01:19:07;102094.19;;;-5.32;88.64
4392;BME280;2210;51.938;8.488;2024-01-11T01:23:08;102097.56;;;-5.43;87.69
4392;BME280;2210;51.938;8.488;2024-01-11T01:27:08;102108.69;;;-5.49;88.08
4392;BME280;2210;51.938;8.488;2024-01-11T01:31:09;102104.94;;;-5.47;88.35
4392;BME280;2210;51.938;8.488;2024-01-11T01:35:09;102089.09;;;-5.51;88.69
4392;BME280;2210;51.938;8.488;2024-01-11T01:39:10;102101.50;;;-5.49;89.56
4392;BME280;2210;51.938;8.488;2024-01-11T01:43:10;102108.41;;;-5.45;89.80
4392;BME280;2210;51.938;8.488;2024-01-11T01:47:10;102117.81;;;-5.52;89.34
4392;BME280;2210;51.938;8.488;2024-01-11T01:51:12;102110.94;;;-5.57;90.10
4392;BME280;2210;51.938;8.488;2024-01-11T01:55:14;102106.38;;;-5.55;89.61
4392;BME280;2210;51.938;8.488;2024-01-11T01:59:15;102105.13;;;-5.64;90.11
4392;BME280;2210;51.938;8.488;2024-01-11T02:03:16;102103.09;;;-5.61;90.56
4392;BME280;2210;51.938;8.488;2024-01-11T02:07:17;102095.72;;;-5.57;91.52
4392;BME280;2210;51.938;8.488;2024-01-11T02:11:19;102104.22;;;-5.65;90.88
4392;BME280;2210;51.938;8.488;2024-01-11T02:15:20;102107.56;;;-5.76;91.57
4392;BME280;2210;51.938;8.488;2024-01-11T02:19:26;102108.34;;;-5.73;92.36
4392;BME280;2210;51.938;8.488;2024-01-11T02:23:27;102115.81;;;-5.79;91.37
4392;BME280;2210;51.938;8.488;2024-01-11T02:27:28;102114.38;;;-5.84;92.46
4392;BME280;2210;51.938;8.488;2024-01-11T02:31:28;102109.00;;;-5.84;92.66
4392;BME280;2210;51.938;8.488;2024-01-11T02:35:28;102102.28;;;-5.77;92.30
4392;BME280;2210;51.938;8.488;2024-01-11T02:39:29;102096.81;;;-5.76;92.34
4392;BME280;2210;51.938;8.488;2024-01-11T02:43:29;102101.34;;;-5.76;91.84
4392;BME280;2210;51.938;8.488;2024-01-11T02:47:30;102110.78;;;-5.85;92.58
4392;BME280;2210;51.938;8.488;2024-01-11T02:51:30;102114.13;;;-5.96;92.23
4392;BME280;2210;51.938;8.488;2024-01-11T02:55:30;102103.13;;;-5.91;92.46
4392;BME280;2210;51.938;8.488;2024-01-11T02:59:33;102105.22;;;-5.96;92.01
4392;BME280;2210;51.938;8.488;2024-01-11T03:03:34;102098.41;;;-6.02;92.23
4392;BME280;2210;51.938;8.488;2024-01-11T03:07:34;102087.94;;;-6.06;92.14
4392;BME280;2210;51.938;8.488;2024-01-11T03:11:34;102112.41;;;-5.97;92.71
4392;BME280;2210;51.938;8.488;2024-01-11T03:15:35;102113.22;;;-6.11;92.16
4392;BME280;2210;51.938;8.488;2024-01-11T03:19:39;102091.22;;;-6.01;92.15
4392;BME280;2210;51.938;8.488;2024-01-11T03:23:40;102113.25;;;-5.96;92.09
4392;BME280;2210;51.938;8.488;2024-01-11T03:27:40;102110.09;;;-6.03;93.34
4392;BME280;2210;51.938;8.488;2024-01-11T03:31:40;102116.19;;;-6.15;92.44
4392;BME280;2210;51.938;8.488;2024-01-11T03:35:42;102098.09;;;-6.12;93.52
4392;BME280;2210;51.938;8.488;2024-01-11T03:39:44;102115.81;;;-6.09;92.71
4392;BME280;2210;51.938;8.488;2024-01-11T03:43:44;102115.59;;;-6.20;93.71
4392;BME280;2210;51.938;8.488;2024-01-11T03:47:44;102106.72;;;-6.06;93.22
4392;BME280;2210;51.938;8.488;2024-01-11T03:51:47;102103.69;;;-6.00;92.27
4392;BME280;2210;51.938;8.488;2024-01-11T03:55:50;102102.75;;;-5.85;93.44
4392;BME280;2210;51.938;8.488;2024-01-11T03:59:50;102111.44;;;-5.96;93.02
4392;BME280;2210;51.938;8.488;2024-01-11T04:03:51;102134.56;;;-6.07;91.85
4392;BME280;2210;51.938;8.488;2024-01-11T04:07:51;102123.03;;;-5.79;93.39
4392;BME280;2210;51.938;8.488;2024-01-11T04:11:51;102138.94;;;-5.76;92.33
4392;BME280;2210;51.938;8.488;2024-01-11T04:15:51;102151.91;;;-5.68;92.68
4392;BME280;2210;51.938;8.488;2024-01-11T04:19:52;102156.13;;;-5.95;91.82
4392;BME280;2210;51.938;8.488;2024-01-11T04:23:52;102151.28;;;-5.88;92.69
4392;BME280;2210;51.938;8.488;2024-01-11T04:27:53;102163.94;;;-5.90;92.98
4392;BME280;2210;51.938;8.488;2024-01-11T04:31:53;102155.75;;;-6.03;92.74
4392;BME280;2210;51.938;8.488;2024-01-11T04:35:53;102163.81;;;-6.03;93.95
4392;BME280;2210;51.938;8.488;2024-01-11T04:39:53;102171.41;;;-5.95;94.89
4392;BME280;2210;51.938;8.488;2024-01-11T04:43:55;102154.50;;;-5.97;95.14
4392;BME280;2210;51.938;8.488;2024-01-11T04:47:55;102154.16;;;-5.91;94.65
4392;BME280;2210;51.938;8.488;2024-01-11T04:51:55;102163.53;;;-5.98;95.22
4392;BME280;2210;51.938;8.488;2024-01-11T04:55:55;102176.53;;;-6.06;94.77
4392;BME280;2210;51.938;8.488;2024-01-11T04:59:56;102174.28;;;-5.98;94.76
4392;BME280;2210;51.938;8.488;2024-01-11T05:03:56;102170.75;;;-6.15;94.50
4392;BME280;2210;51.938;8.488;2024-01-11T05:07:57;102158.28;;;-6.16;94.27
4392;BME280;2210;51.938;8.488;2024-01-11T05:12:00;102156.03;;;-6.23;93.76
4392;BME280;2210;51.938;8.488;2024-01-11T05:16:03;102133.78;;;-6.25;94.66
4392;BME280;2210;51.938;8.488;2024-01-11T05:20:10;102117.03;;;-6.15;94.55
4392;BME280;2210;51.938;8.488;2024-01-11T05:24:10;102111.44;;;-6.10;94.57
4392;BME280;2210;51.938;8.488;2024-01-11T05:28:14;102125.16;;;-6.00;95.08
4392;BME280;2210;51.938;8.488;2024-01-11T05:32:14;102131.25;;;-6.13;94.66
4392;BME280;2210;51.938;8.488;2024-01-11T05:36:14;102147.38;;;-6.13;95.09
4392;BME280;2210;51.938;8.488;2024-01-11T05:40:15;102158.22;;;-6.30;94.35
4392;BME280;2210;51.938;8.488;2024-01-11T05:44:15;102167.03;;;-6.28;95.24
4392;BME280;2210;51.938;8.488;2024-01-11T05:48:16;102154.81;;;-6.18;94.79
4392;BME280;2210;51.938;8.488;2024-01-11T05:52:16;102158.44;;;-6.19;94.28
4392;BME280;2210;51.938;8.488;2024-01-11T05:56:18;102170.94;;;-6.18;94.84
4392;BME280;2210;51.938;8.488;2024-01-11T06:00:19;102177.19;;;-6.33;94.45
4392;BME280;2210;51.938;8.488;2024-01-11T06:04:19;102177.50;;;-6.39;94.96
4392;BME280;2210;51.938;8.488;2024-01-11T06:08:20;102176.91;;;-6.29;95.66
4392;BME280;2210;51.938;8.488;2024-01-11T06:12:20;102189.28;;;-6.26;95.69
4392;BME280;2210;51.938;8.488;2024-01-11T06:16:20;102208.34;;;-6.31;95.98
4392;BME280;2210;51.938;8.488;2024-01-11T06:20:21;102226.25;;;-6.31;95.68
4392;BME280;2210;51.938;8.488;2024-01-11T06:24:21;102232.41;;;-6.29;95.66
4392;BME280;2210;51.938;8.488;2024-01-11T06:28:21;102228.59;;;-6.25;95.57
4392;BME280;2210;51.938;8.488;2024-01-11T06:32:21;102200.88;;;-6.25;96.82
4392;BME280;2210;51.938;8.488;2024-01-11T06:36:22;102203.09;;;-6.50;96.55
4392;BME280;2210;51.938;8.488;2024-01-11T06:40:22;102196.53;;;-6.28;97.34
4392;BME280;2210;51.938;8.488;2024-01-11T06:44:22;102201.94;;;-6.44;97.38
4392;BME280;2210;51.938;8.488;2024-01-11T06:48:22;102191.88;;;-6.24;98.29
4392;BME280;2210;51.938;8.488;2024-01-11T06:52:23;102192.22;;;-6.15;97.20
4392;BME280;2210;51.938;8.488;2024-01-11T06:56:23;102173.47;;;-6.31;97.08
4392;BME280;2210;51.938;8.488;2024-01-11T07:00:24;102170.50;;;-6.10;97.09
4392;BME280;2210;51.938;8.488;2024-01-11T07:04:24;102160.41;;;-6.06;97.29
4392;BME280;2210;51.938;8.488;2024-01-11T07:08:24;102160.41;;;-6.06;96.82
4392;BME280;2210;51.938;8.488;2024-01-11T07:12:25;102165.72;;;-6.05;96.36
4392;BME280;2210;51.938;8.488;2024-01-11T07:16:28;102169.19;;;-6.19;96.77
4392;BME280;2210;51.938;8.488;2024-01-11T07:20:28;102178.78;;;-6.15;96.58
4392;BME280;2210;51.938;8.488;2024-01-11T07:24:28;102179.31;;;-6.24;96.43
4392;BME280;2210;51.938;8.488;2024-01-11T07:28:37;102175.78;;;-6.24;96.46
4392;BME280;2210;51.938;8.488;2024-01-11T07:32:37;102180.09;;;-6.22;96.38
4392;BME280;2210;51.938;8.488;2024-01-11T07:36:38;102200.28;;;-6.31;96.17
4392;BME280;2210;51.938;8.488;2024-01-11T07:40:38;102210.75;;;-6.42;96.49
4392;BME280;2210;51.938;8.488;2024-01-11T07:44:38;102208.69;;;-6.37;96.75
4392;BME280;2210;51.938;8.488;2024-01-11T07:48:38;102204.75;;;-6.47;96.92
4392;BME280;2210;51.938;8.488;2024-01-11T07:52:39;102202.97;;;-6.31;97.64
4392;BME280;2210;51.938;8.488;2024-01-11T07:56:42;102209.38;;;-6.33;96.98
4392;BME280;2210;51.938;8.488;2024-01-11T08:00:42;102219.94;;;-6.30;97.92
4392;BME280;2210;51.938;8.488;2024-01-11T08:04:43;102227.28;;;-6.34;98.17
4392;BME280;2210;51.938;8.488;2024-01-11T08:08:43;102219.22;;;-6.34;97.47
4392;BME280;2210;51.938;8.488;2024-01-11T08:12:44;102226.78;;;-6.24;97.94
4392;BME280;2210;51.938;8.488;2024-01-11T08:16:44;102230.16;;;-6.21;97.90
4392;BME280;2210;51.938;8.488;2024-01-11T08:20:44;102216.28;;;-6.13;97.80
4392;BME280;2210;51.938;8.488;2024-01-11T08:24:44;102209.72;;;-6.07;97.17
4392;BME280;2210;51.938;8.488;2024-01-11T08:28:45;102207.25;;;-5.96;97.12
4392;BME280;2210;51.938;8.488;2024-01-11T08:32:45;102218.59;;;-5.91;97.21
4392;BME280;2210;51.938;8.488;2024-01-11T08:36:46;102244.69;;;-6.09;97.51
4392;BME280;2210;51.938;8.488;2024-01-11T08:40:46;102245.59;;;-6.08;97.68
4392;BME280;2210;51.938;8.488;2024-01-11T08:44:47;102263.03;;;-5.85;98.20
4392;BME280;2210;51.938;8.488;2024-01-11T08:48:47;102254.19;;;-5.71;98.35
4392;BME280;2210;51.938;8.488;2024-01-11T08:52:47;102256.78;;;-5.54;98.28
4392;BME280;2210;51.938;8.488;2024-01-11T08:56:48;102261.00;;;-5.50;98.37
4392;BME280;2210;51.938;8.488;2024-01-11T09:00:48;102281.78;;;-5.37;97.03
4392;BME280;2210;51.938;8.488;2024-01-11T09:04:49;102289.31;;;-5.28;96.04
4392;BME280;2210;51.938;8.488;2024-01-11T09:08:49;102288.44;;;-5.13;95.16
4392;BME280;2210;51.938;8.488;2024-01-11T09:12:49;102287.28;;;-5.09;94.85
4392;BME280;2210;51.938;8.488;2024-01-11T09:16:49;102268.56;;;-4.96;94.30
4392;BME280;2210;51.938;8.488;2024-01-11T09:20:50;102273.50;;;-4.88;94.08
4392;BME280;2210;51.938;8.488;2024-01-11T09:24:50;102269.16;;;-4.76;93.51
4392;BME280;2210;51.938;8.488;2024-01-11T09:28:50;102250.06;;;-4.71;91.98
4392;BME280;2210;51.938;8.488;2024-01-11T09:32:51;102239.09;;;-4.68;91.35
4392;BME280;2210;51.938;8.488;2024-01-11T09:36:51;102238.75;;;-4.62;90.31
4392;BME280;2210;51.938;8.488;2024-01-11T09:41:07;102246.81;;;-4.62;90.04
4392;BME280;2210;51.938;8.488;2024-01-11T09:45:10;102261.22;;;-4.63;89.96
4392;BME280;2210;51.938;8.488;2024-01-11T09:49:12;102255.34;;;-4.41;89.13
4392;BME280;2210;51.938;8.488;2024-01-11T09:53:14;102244.56;;;-4.27;87.97
4392;BME280;2210;51.938;8.488;2024-01-11T09:57:22;102243.78;;;-4.14;86.56
4392;BME280;2210;51.938;8.488;2024-01-11T10:01:24;102254.25;;;-4.10;85.88
4392;BME280;2210;51.938;8.488;2024-01-11T10:05:25;102260.91;;;-4.01;85.09
4392;BME280;2210;51.938;8.488;2024-01-11T10:09:28;102257.09;;;-3.84;84.99
4392;BME280;2210;51.938;8.488;2024-01-11T10:13:32;102264.06;;;-3.67;85.03
4392;BME280;2210;51.938;8.488;2024-01-11T10:17:33;102265.22;;;-3.57;84.47
4392;BME280;2210;51.938;8.488;2024-01-11T10:21:33;102250.69;;;-3.41;83.86
4392;BME280;2210;51.938;8.488;2024-01-11T10:25:33;102246.09;;;-3.26;83.86
4392;BME280;2210;51.938;8.488;2024-01-11T10:29:34;102249.06;;;-3.03;82.48
4392;BME280;2210;51.938;8.488;2024-01-11T10:33:36;102239.34;;;-2.93;80.23
4392;BME280;2210;51.938;8.488;2024-01-11T10:37:37;102241.53;;;-2.73;80.04
4392;BME280;2210;51.938;8.488;2024-01-11T10:42:06;102244.84;;;-2.43;78.39
4392;BME280;2210;51.938;8.488;2024-01-11T10:46:10;102247.66;;;-2.32;83.21
4392;BME280;2210;51.938;8.488;2024-01-11T10:50:13;102252.28;;;-2.34;90.43
4392;BME280;2210;51.938;8.488;2024-01-11T10:54:14;102240.38;;;-2.18;94.67
4392;BME280;2210;51.938;8.488;2024-01-11T10:58:15;102252.38;;;-2.10;97.71
4392;BME280;2210;51.938;8.488;2024-01-11T11:02:17;102250.50;;;-1.96;100.00
4392;BME280;2210;51.938;8.488;2024-01-11T11:06:18;102247.97;;;-1.87;100.00
4392;BME280;2210;51.938;8.488;2024-01-11T11:10:19;102246.47;;;-1.91;100.00
4392;BME280;2210;51.938;8.488;2024-01-11T11:14:20;102239.91;;;-1.75;100.00
4392;BME280;2210;51.938;8.488;2024-01-11T11:18:22;102225.16;;;-1.58;100.00
4392;BME280;2210;51.938;8.488;2024-01-11T11:22:22;102229.22;;;-1.53;100.00
4392;BME280;2210;51.938;8.488;2024-01-11T11:26:26;102235.09;;;-1.59;100.00
4392;BME280;2210;51.938;8.488;2024-01-11T11:30:28;102232.38;;;-1.59;100.00
4392;BME280;2210;51.938;8.488;2024-01-11T11:34:41;102237.59;;;-1.56;100.00
4392;BME280;2210;51.938;8.488;2024-01-11T11:38:42;102235.28;;;-1.49;100.00
4392;BME280;2210;51.938;8.488;2024-01-11T11:42:43;102235.69;;;-1.42;100.00
4392;BME280;2210;51.938;8.488;2024-01-11T11:46:45;102226.97;;;-1.34;100.00
4392;BME280;2210;51.938;8.488;2024-01-11T11:50:48;102225.16;;;-1.23;100.00
4392;BME280;2210;51.938;8.488;2024-01-11T11:55:01;102227.53;;;-1.18;100.00
4392;BME280;2210;51.938;8.488;2024-01-11T11:59:02;102221.13;;;-1.17;100.00
4392;BME280;2210;51.938;8.488;2024-01-11T12:03:04;102223.00;;;-1.06;100.00
4392;BME280;2210;51.938;8.488;2024-01-11T12:07:05;102217.94;;;-1.11;100.00
4392;BME280;2210;51.938;8.488;2024-01-11T12:11:05;102212.69;;;-1.01;100.00
4392;BME280;2210;51.938;8.488;2024-01-11T12:15:05;102212.44;;;-0.98;100.00
4392;BME280;2210;51.938;8.488;2024-01-11T12:19:06;102222.16;;;-0.95;100.00
4392;BME280;2210;51.938;8.488;2024-01-11T12:23:06;102216.75;;;-0.95;100.00
4392;BME280;2210;51.938;8.488;2024-01-11T12:27:07;102214.53;;;-1.02;100.00
4392;BME280;2210;51.938;8.488;2024-01-11T12:31:07;102224.66;;;-0.92;100.00
4392;BME280;2210;51.938;8.488;2024-01-11T12:35:11;102216.63;;;-0.94;100.00
4392;BME280;2210;51.938;8.488;2024-01-11T12:39:16;102208.88;;;-0.87;100.00
4392;BME280;2210;51.938;8.488;2024-01-11T12:43:16;102196.09;;;-0.85;100.00
4392;BME280;2210;51.938;8.488;2024-01-11T12:47:17;102191.53;;;-0.85;100.00
4392;BME280;2210;51.938;8.488;2024-01-11T12:51:21;102184.16;;;-0.82;100.00
4392;BME280;2210;51.938;8.488;2024-01-11T12:55:21;102184.03;;;-0.70;100.00
4392;BME280;2210;51.938;8.488;2024-01-11T12:59:25;102176.88;;;-0.71;100.00
4392;BME280;2210;51.938;8.488;2024-01-11T13:03:26;102167.53;;;-0.66;100.00
4392;BME280;2210;51.938;8.488;2024-01-11T13:07:30;102155.22;;;-0.71;100.00
4392;BME280;2210;51.938;8.488;2024-01-11T13:11:31;102156.59;;;-0.65;100.00
4392;BME280;2210;51.938;8.488;2024-01-11T13:15:31;102148.94;;;-0.71;100.00
4392;BME280;2210;51.938;8.488;2024-01-11T13:19:31;102163.94;;;-0.56;100.00
4392;BME280;2210;51.938;8.488;2024-01-11T13:23:32;102172.84;;;-0.54;100.00
4392;BME280;2210;51.938;8.488;2024-01-11T13:27:32;102161.38;;;-0.57;100.00
4392;BME280;2210;51.938;8.488;2024-01-11T13:31:33;102152.38;;;-0.35;100.00
4392;BME280;2210;51.938;8.488;2024-01-11T13:35:37;102151.53;;;-0.47;100.00
4392;BME280;2210;51.938;8.488;2024-01-11T13:39:38;102152.75;;;-0.40;100.00
4392;BME280;2210;51.938;8.488;2024-01-11T13:43:38;102153.22;;;-0.35;100.00
4392;BME280;2210;51.938;8.488;2024-01-11T13:47:38;102159.25;;;-0.42;100.00
4392;BME280;2210;51.938;8.488;2024-01-11T13:51:39;102159.13;;;-0.41;100.00
4392;BME280;2210;51.938;8.488;2024-01-11T13:55:39;102171.22;;;-0.33;100.00
4392;BME280;2210;51.938;8.488;2024-01-11T13:59:39;102165.94;;;-0.35;100.00
4392;BME280;2210;51.938;8.488;2024-01-11T14:03:39;102157.81;;;-0.35;100.00
4392;BME280;2210;51.938;8.488;2024-01-11T14:07:50;102152.25;;;-0.33;100.00
4392;BME280;2210;51.938;8.488;2024-01-11T14:11:54;102157.69;;;-0.33;100.00
4392;BME280;2210;51.938;8.488;2024-01-11T14:15:54;102158.03;;;-0.38;100.00
4392;BME280;2210;51.938;8.488;2024-01-11T14:19:55;102162.09;;;-0.44;100.00
4392;BME280;2210;51.938;8.488;2024-01-11T14:23:55;102161.84;;;-0.41;100.00
4392;BME280;2210;51.938;8.488;2024-01-11T14:27:55;102158.69;;;-0.46;100.00
4392;BME280;2210;51.938;8.488;2024-01-11T14:31:59;102166.69;;;-0.44;100.00
4392;BME280;2210;51.938;8.488;2024-01-11T14:35:59;102175.16;;;-0.49;100.00
4392;BME280;2210;51.938;8.488;2024-01-11T14:40:00;102178.25;;;-0.54;100.00
4392;BME280;2210;51.938;8.488;2024-01-11T14:44:01;102186.47;;;-0.66;100.00
4392;BME280;2210;51.938;8.488;2024-01-11T14:48:01;102189.56;;;-0.60;100.00
4392;BME280;2210;51.938;8.488;2024-01-11T14:52:02;102185.75;;;-0.69;100.00
4392;BME280;2210;51.938;8.488;2024-01-11T14:56:03;102186.25;;;-0.63;100.00
4392;BME280;2210;51.938;8.488;2024-01-11T15:00:04;102190.81;;;-0.64;100.00
4392;BME280;2210;51.938;8.488;2024-01-11T15:04:04;102194.88;;;-0.70;100.00
4392;BME280;2210;51.938;8.488;2024-01-11T15:08:05;102197.44;;;-0.68;100.00
4392;BME280;2210;51.938;8.488;2024-01-11T15:12:05;102195.50;;;-0.66;100.00
4392;BME280;2210;51.938;8.488;2024-01-11T15:16:06;102199.31;;;-0.69;100.00
4392;BME280;2210;51.938;8.488;2024-01-11T15:20:07;102191.69;;;-0.63;100.00
4392;BME280;2210;51.938;8.488;2024-01-11T15:24:08;102188.47;;;-0.57;100.00
4392;BME280;2210;51.938;8.488;2024-01-11T15:28:08;102182.81;;;-0.54;100.00
4392;BME280;2210;51.938;8.488;2024-01-11T15:32:08;102178.38;;;-0.55;100.00
4392;BME280;2210;51.938;8.488;2024-01-11T15:36:10;102173.69;;;-0.53;100.00
4392;BME280;2210;51.938;8.488;2024-01-11T15:40:10;102167.53;;;-0.55;100.00
4392;BME280;2210;51.938;8.488;2024-01-11T15:44:11;102181.59;;;-0.50;100.00
4392;BME280;2210;51.938;8.488;2024-01-11T15:48:11;102175.94;;;-0.58;100.00
4392;BME280;2210;51.938;8.488;2024-01-11T15:52:11;102177.63;;;-0.57;100.00
4392;BME280;2210;51.938;8.488;2024-01-11T15:56:11;102191.69;;;-0.63;100.00
4392;BME280;2210;51.938;8.488;2024-01-11T16:00:12;102199.56;;;-0.60;100.00
4392;BME280;2210;51.938;8.488;2024-01-11T16:04:13;102196.34;;;-0.65;100.00
4392;BME280;2210;51.938;8.488;2024-01-11T16:08:13;102202.03;;;-0.46;100.00
4392;BME280;2210;51.938;8.488;2024-01-11T16:12:14;102195.63;;;-0.56;100.00
4392;BME280;2210;51.938;8.488;2024-01-11T16:16:14;102187.34;;;-0.55;100.00
4392;BME280;2210;51.938;8.488;2024-01-11T16:20:15;102204.72;;;-0.57;100.00
4392;BME280;2210;51.938;8.488;2024-01-11T16:24:15;102196.84;;;-0.49;100.00
4392;BME280;2210;51.938;8.488;2024-01-11T16:28:15;102193.38;;;-0.40;100.00
4392;BME280;2210;51.938;8.488;2024-01-11T16:32:16;102185.50;;;-0.31;100.00
4392;BME280;2210;51.938;8.488;2024-01-11T16:36:17;102192.63;;;-0.19;100.00
4392;BME280;2210;51.938;8.488;2024-01-11T16:40:17;102202.50;;;-0.29;100.00
4392;BME280;2210;51.938;8.488;2024-01-11T16:44:18;102200.50;;;-0.05;100.00
4392;BME280;2210;51.938;8.488;2024-01-11T16:48:18;102193.88;;;-0.12;100.00
4392;BME280;2210;51.938;8.488;2024-01-11T16:52:18;102185.47;;;-0.09;100.00
4392;BME280;2210;51.938;8.488;2024-01-11T16:56:20;102179.34;;;-0.33;100.00
4392;BME280;2210;51.938;8.488;2024-01-11T17:00:44;102183.53;;;-0.29;100.00
4392;BME280;2210;51.938;8.488;2024-01-11T17:04:45;102181.81;;;-0.53;100.00
4392;BME280;2210;51.938;8.488;2024-01-11T17:08:45;102184.53;;;-0.53;100.00
4392;BME280;2210;51.938;8.488;2024-01-11T17:12:46;102192.88;;;-0.45;100.00
4392;BME280;2210;51.938;8.488;2024-01-11T17:16:46;102195.63;;;-0.33;100.00
4392;BME280;2210;51.938;8.488;2024-01-11T17:20:46;102197.94;;;-0.29;100.00
4392;BME280;2210;51.938;8.488;2024-01-11T17:24:47;102193.13;;;-0.25;100.00
4392;BME280;2210;51.938;8.488;2024-01-11T17:28:47;102202.41;;;-0.39;100.00
4392;BME280;2210;51.938;8.488;2024-01-11T17:32:47;102199.94;;;-0.31;100.00
4392;BME280;2210;51.938;8.488;2024-01-11T17:36:47;102199.78;;;-0.41;100.00
4392;BME280;2210;51.938;8.488;2024-01-11T17:40:48;102194.63;;;-0.32;100.00
4392;BME280;2210;51.938;8.488;2024-01-11T17:44:48;102202.97;;;-0.13;100.00
4392;BME280;2210;51.938;8.488;2024-01-11T17:48:49;102199.56;;;-0.38;100.00
4392;BME280;2210;51.938;8.488;2024-01-11T17:52:49;102197.47;;;-0.45;100.00
4392;BME280;2210;51.938;8.488;2024-01-11T17:56:50;102185.25;;;-0.40;100.00
4392;BME280;2210;51.938;8.488;2024-01-11T18:00:50;102186.25;;;-0.29;100.00
4392;BME280;2210;51.938;8.488;2024-01-11T18:04:50;102182.56;;;-0.28;100.00
4392;BME280;2210;51.938;8.488;2024-01-11T18:08:50;102187.56;;;-0.12;100.00
4392;BME280;2210;51.938;8.488;2024-01-11T18:12:51;102184.50;;;-0.30;100.00
4392;BME280;2210;51.938;8.488;2024-01-11T18:16:51;102178.38;;;-0.32;100.00
4392;BME280;2210;51.938;8.488;2024-01-11T18:20:51;102170.72;;;-0.39;100.00
4392;BME280;2210;51.938;8.488;2024-01-11T18:24:51;102171.94;;;-0.31;100.00
4392;BME280;2210;51.938;8.488;2024-01-11T18:28:52;102151.31;;;0.00;100.00
4392;BME280;2210;51.938;8.488;2024-01-11T18:32:53;102166.00;;;-0.14;100.00
4392;BME280;2210;51.938;8.488;2024-01-11T18:36:54;102156.78;;;-0.23;100.00
4392;BME280;2210;51.938;8.488;2024-01-11T18:40:54;102166.97;;;-0.15;100.00
4392;BME280;2210;51.938;8.488;2024-01-11T18:44:54;102171.66;;;-0.06;100.00
4392;BME280;2210;51.938;8.488;2024-01-11T18:48:57;102177.00;;;-0.27;100.00
4392;BME280;2210;51.938;8.488;2024-01-11T18:52:58;102174.41;;;-0.40;100.00
4392;BME280;2210;51.938;8.488;2024-01-11T18:56:58;102174.19;;;-0.48;100.00
4392;BME280;2210;51.938;8.488;2024-01-11T19:01:00;102177.38;;;-0.31;100.00
4392;BME280;2210;51.938;8.488;2024-01-11T19:05:00;102182.78;;;-0.31;100.00
4392;BME280;2210;51.938;8.488;2024-01-11T19:09:00;102188.22;;;-0.31;100.00
4392;BME280;2210;51.938;8.488;2024-01-11T19:13:00;102194.50;;;-0.31;100.00
4392;BME280;2210;51.938;8.488;2024-01-11T19:17:01;102188.22;;;-0.43;100.00
4392;BME280;2210;51.938;8.488;2024-01-11T19:21:05;102191.66;;;-0.52;100.00
4392;BME280;2210;51.938;8.488;2024-01-11T19:25:05;102194.13;;;-0.49;100.00
4392;BME280;2210;51.938;8.488;2024-01-11T19:29:06;102204.25;;;-0.51;100.00
4392;BME280;2210;51.938;8.488;2024-01-11T19:33:06;102201.03;;;-0.56;100.00
4392;BME280;2210;51.938;8.488;2024-01-11T19:37:09;102203.00;;;-0.36;100.00
4392;BME280;2210;51.938;8.488;2024-01-11T19:41:12;102204.00;;;-0.37;100.00
4392;BME280;2210;51.938;8.488;2024-01-11T19:45:12;102197.97;;;-0.40;100.00
4392;BME280;2210;51.938;8.488;2024-01-11T19:49:13;102207.06;;;-0.30;100.00
4392;BME280;2210;51.938;8.488;2024-01-11T19:53:13;102219.03;;;-0.32;100.00
4392;BME280;2210;51.938;8.488;2024-01-11T19:57:15;102218.63;;;-0.51;100.00
4392;BME280;2210;51.938;8.488;2024-01-11T20:01:16;102211.13;;;-0.47;100.00
4392;BME280;2210;51.938;8.488;2024-01-11T20:05:16;102216.31;;;-0.44;100.00
4392;BME280;2210;51.938;8.488;2024-01-11T20:09:16;102222.59;;;-0.43;100.00
4392;BME280;2210;51.938;8.488;2024-01-11T20:13:18;102223.34;;;-0.53;100.00
4392;BME280;2210;51.938;8.488;2024-01-11T20:17:18;102222.22;;;-0.50;100.00
4392;BME280;2210;51.938;8.488;2024-01-11T20:21:18;102236.03;;;-0.42;100.00
4392;BME280;2210;51.938;8.488;2024-01-11T20:25:19;102230.84;;;-0.33;100.00
4392;BME280;2210;51.938;8.488;2024-01-11T20:29:19;102235.91;;;-0.40;100.00
4392;BME280;2210;51.938;8.488;2024-01-11T20:33:19;102238.50;;;-0.50;100.00
4392;BME280;2210;51.938;8.488;2024-01-11T20:37:20;102228.97;;;-0.56;100.00
4392;BME280;2210;51.938;8.488;2024-01-11T20:41:21;102231.59;;;-0.54;100.00
4392;BME280;2210;51.938;8.488;2024-01-11T20:45:21;102235.78;;;-0.39;100.00
4392;BME280;2210;51.938;8.488;2024-01-11T20:49:21;102227.63;;;-0.39;100.00
4392;BME280;2210;51.938;8.488;2024-01-11T20:53:21;102233.94;;;-0.27;100.00
4392;BME280;2210;51.938;8.488;2024-01-11T20:57:21;102231.44;;;-0.30;100.00
4392;BME280;2210;51.938;8.488;2024-01-11T21:01:22;102232.56;;;-0.44;100.00
4392;BME280;2210;51.938;8.488;2024-01-11T21:05:22;102229.63;;;-0.29;100.00
4392;BME280;2210;51.938;8.488;2024-01-11T21:09:24;102232.81;;;-0.36;100.00
4392;BME280;2210;51.938;8.488;2024-01-11T21:13:24;102240.81;;;-0.45;100.00
4392;BME280;2210;51.938;8.488;2024-01-11T21:17:25;102235.16;;;-0.42;100.00
4392;BME280;2210;51.938;8.488;2024-01-11T21:21:25;102239.94;;;-0.23;100.00
4392;BME280;2210;51.938;8.488;2024-01-11T21:25:26;102241.94;;;-0.25;100.00